sensor_id;sensor_type;location;lat;lon;timestamp;temperature;humidity
32749;DHT22;19119;52.474;13.710;2023-04-03T00:00:38;1.40;99.90
32749;DHT22;19119;52.474;13.710;2023-04-03T00:03:03;1.40;99.90
32749;DHT22;19119;52.474;13.710;2023-04-03T00:05:29;1.40;99.90
32749;DHT22;19119;52.474;13.710;2023-04-03T00:07:54;1.40;99.90
32749;DHT22;19119;52.474;13.710;2023-04-03T00:10:20;1.30;99.90
32749;DHT22;19119;52.474;13.710;2023-04-03T00:12:45;1.40;99.90
32749;DHT22;19119;52.474;13.710;2023-04-03T00:15:12;1.30;99.90
32749;DHT22;19119;52.474;13.710;2023-04-03T00:17:38;1.30;99.90
32749;DHT22;19119;52.474;13.710;2023-04-03T00:20:04;1.40;99.90
32749;DHT22;19119;52.474;13.710;2023-04-03T00:22:30;1.30;99.90
32749;DHT22;19119;52.474;13.710;2023-04-03T00:24:55;1.30;99.90
32749;DHT22;19119;52.474;13.710;2023-04-03T00:27:21;1.40;99.90
32749;DHT22;19119;52.474;13.710;2023-04-03T00:29:48;1.30;99.90
32749;DHT22;19119;52.474;13.710;2023-04-03T00:32:14;1.20;99.90
32749;DHT22;19119;52.474;13.710;2023-04-03T00:34:39;1.30;99.90
32749;DHT22;19119;52.474;13.710;2023-04-03T00:37:05;1.20;99.90
32749;DHT22;19119;52.474;13.710;2023-04-03T00:39:32;1.30;99.90
32749;DHT22;19119;52.474;13.710;2023-04-03T00:41:57;1.20;99.90
32749;DHT22;19119;52.474;13.710;2023-04-03T00:47:15;1.20;99.90
32749;DHT22;19119;52.474;13.710;2023-04-03T00:49:42;1.20;99.90
32749;DHT22;19119;52.474;13.710;2023-04-03T00:52:12;1.20;99.90
32749;DHT22;19119;52.474;13.710;2023-04-03T00:54:41;1.10;99.90
32749;DHT22;19119;52.474;13.710;2023-04-03T00:57:07;1.10;99.90
32749;DHT22;19119;52.474;13.710;2023-04-03T00:59:41;1.20;99.90
32749;DHT22;19119;52.474;13.710;2023-04-03T01:02:10;1.10;99.90
32749;DHT22;19119;52.474;13.710;2023-04-03T01:04:41;1.10;99.90
32749;DHT22;19119;52.474;13.710;2023-04-03T01:07:12;1.20;99.90
32749;DHT22;19119;52.474;13.710;2023-04-03T01:09:40;1.20;99.90
32749;DHT22;19119;52.474;13.710;2023-04-03T01:12:20;1.10;99.90
32749;DHT22;19119;52.474;13.710;2023-04-03T01:14:52;1.10;99.90
32749;DHT22;19119;52.474;13.710;2023-04-03T01:22:59;1.00;99.90
32749;DHT22;19119;52.474;13.710;2023-04-03T01:25:29;0.90;99.90
32749;DHT22;19119;52.474;13.710;2023-04-03T01:27:55;0.90;99.90
32749;DHT22;19119;52.474;13.710;2023-04-03T01:30:21;0.90;99.90
32749;DHT22;19119;52.474;13.710;2023-04-03T01:32:50;0.80;99.90
32749;DHT22;19119;52.474;13.710;2023-04-03T01:35:15;0.80;99.90
32749;DHT22;19119;52.474;13.710;2023-04-03T01:37:41;0.70;99.90
32749;DHT22;19119;52.474;13.710;2023-04-03T01:40:07;0.70;99.90
32749;DHT22;19119;52.474;13.710;2023-04-03T01:42:33;0.60;99.90
32749;DHT22;19119;52.474;13.710;2023-04-03T01:44:59;0.50;99.90
32749;DHT22;19119;52.474;13.710;2023-04-03T01:47:24;0.40;99.90
32749;DHT22;19119;52.474;13.710;2023-04-03T01:49:50;0.40;99.90
32749;DHT22;19119;52.474;13.710;2023-04-03T01:52:15;0.40;99.90
32749;DHT22;19119;52.474;13.710;2023-04-03T01:54:41;0.30;99.90
32749;DHT22;19119;52.474;13.710;2023-04-03T01:57:06;0.30;99.90
32749;DHT22;19119;52.474;13.710;2023-04-03T01:59:32;0.10;99.90
32749;DHT22;19119;52.474;13.710;2023-04-03T02:01:58;0.20;99.90
32749;DHT22;19119;52.474;13.710;2023-04-03T02:04:23;0.10;99.90
32749;DHT22;19119;52.474;13.710;2023-04-03T02:06:49;0.10;99.90
32749;DHT22;19119;52.474;13.710;2023-04-03T02:09:14;0.00;99.90
32749;DHT22;19119;52.474;13.710;2023-04-03T02:11:40;-0.10;99.90
32749;DHT22;19119;52.474;13.710;2023-04-03T02:14:06;0.00;99.90
32749;DHT22;19119;52.474;13.710;2023-04-03T02:16:31;0.00;99.90
32749;DHT22;19119;52.474;13.710;2023-04-03T02:18:57;-0.10;99.90
32749;DHT22;19119;52.474;13.710;2023-04-03T02:21:24;-0.20;99.90
32749;DHT22;19119;52.474;13.710;2023-04-03T02:23:49;-0.20;99.90
32749;DHT22;19119;52.474;13.710;2023-04-03T02:26:16;-0.20;99.90
32749;DHT22;19119;52.474;13.710;2023-04-03T02:28:42;-0.20;99.90
32749;DHT22;19119;52.474;13.710;2023-04-03T02:31:08;-0.20;99.90
32749;DHT22;19119;52.474;13.710;2023-04-03T02:33:34;-0.30;99.90
32749;DHT22;19119;52.474;13.710;2023-04-03T02:36:03;-0.30;99.90
32749;DHT22;19119;52.474;13.710;2023-04-03T02:38:31;-0.20;99.90
32749;DHT22;19119;52.474;13.710;2023-04-03T02:41:01;-0.20;99.90
32749;DHT22;19119;52.474;13.710;2023-04-03T02:43:26;-0.20;99.90
32749;DHT22;19119;52.474;13.710;2023-04-03T02:45:52;-0.10;99.90
32749;DHT22;19119;52.474;13.710;2023-04-03T02:48:17;-0.20;99.90
32749;DHT22;19119;52.474;13.710;2023-04-03T02:50:43;-0.30;99.90
32749;DHT22;19119;52.474;13.710;2023-04-03T02:53:08;-0.30;99.90
32749;DHT22;19119;52.474;13.710;2023-04-03T02:55:34;-0.40;99.90
32749;DHT22;19119;52.474;13.710;2023-04-03T02:58:00;-0.40;99.90
32749;DHT22;19119;52.474;13.710;2023-04-03T03:00:25;-0.40;99.90
32749;DHT22;19119;52.474;13.710;2023-04-03T03:02:51;-0.40;99.90
32749;DHT22;19119;52.474;13.710;2023-04-03T03:05:16;-0.40;99.90
32749;DHT22;19119;52.474;13.710;2023-04-03T03:07:42;-0.50;99.90
32749;DHT22;19119;52.474;13.710;2023-04-03T03:10:08;-0.50;99.90
32749;DHT22;19119;52.474;13.710;2023-04-03T03:12:33;-0.50;99.90
32749;DHT22;19119;52.474;13.710;2023-04-03T03:14:59;-0.50;99.90
32749;DHT22;19119;52.474;13.710;2023-04-03T03:17:24;-0.60;99.90
32749;DHT22;19119;52.474;13.710;2023-04-03T03:19:50;-0.60;99.90
32749;DHT22;19119;52.474;13.710;2023-04-03T03:22:16;-0.60;99.90
32749;DHT22;19119;52.474;13.710;2023-04-03T03:24:42;-0.60;99.90
32749;DHT22;19119;52.474;13.710;2023-04-03T03:27:07;-0.60;99.90
32749;DHT22;19119;52.474;13.710;2023-04-03T03:29:33;-0.60;99.90
32749;DHT22;19119;52.474;13.710;2023-04-03T03:31:58;-0.60;99.90
32749;DHT22;19119;52.474;13.710;2023-04-03T03:34:24;-0.60;99.90
32749;DHT22;19119;52.474;13.710;2023-04-03T03:36:49;-0.60;99.90
32749;DHT22;19119;52.474;13.710;2023-04-03T03:39:15;-0.60;99.90
32749;DHT22;19119;52.474;13.710;2023-04-03T03:41:40;-0.60;99.90
32749;DHT22;19119;52.474;13.710;2023-04-03T03:44:06;-0.60;99.90
32749;DHT22;19119;52.474;13.710;2023-04-03T03:46:31;-0.60;99.90
32749;DHT22;19119;52.474;13.710;2023-04-03T03:48:57;-0.70;99.90
32749;DHT22;19119;52.474;13.710;2023-04-03T03:51:22;-0.70;99.90
32749;DHT22;19119;52.474;13.710;2023-04-03T03:53:48;-0.70;99.90
32749;DHT22;19119;52.474;13.710;2023-04-03T03:56:13;-0.80;99.90
32749;DHT22;19119;52.474;13.710;2023-04-03T03:58:39;-0.70;99.90
32749;DHT22;19119;52.474;13.710;2023-04-03T04:01:05;-0.90;99.90
32749;DHT22;19119;52.474;13.710;2023-04-03T04:03:31;-0.80;99.90
32749;DHT22;19119;52.474;13.710;2023-04-03T04:05:57;-0.80;99.90
32749;DHT22;19119;52.474;13.710;2023-04-03T04:08:23;-0.80;99.90
32749;DHT22;19119;52.474;13.710;2023-04-03T04:10:49;-0.80;99.90
32749;DHT22;19119;52.474;13.710;2023-04-03T04:13:14;-0.70;99.90
32749;DHT22;19119;52.474;13.710;2023-04-03T04:15:40;-0.90;99.90
32749;DHT22;19119;52.474;13.710;2023-04-03T04:18:05;-0.90;99.90
32749;DHT22;19119;52.474;13.710;2023-04-03T04:20:31;-0.80;99.90
32749;DHT22;19119;52.474;13.710;2023-04-03T04:22:56;-0.90;99.90
32749;DHT22;19119;52.474;13.710;2023-04-03T04:25:22;-0.90;99.90
32749;DHT22;19119;52.474;13.710;2023-04-03T04:27:47;-0.90;99.90
32749;DHT22;19119;52.474;13.710;2023-04-03T04:30:13;-0.90;99.90
32749;DHT22;19119;52.474;13.710;2023-04-03T04:32:39;-1.00;99.90
32749;DHT22;19119;52.474;13.710;2023-04-03T04:35:05;-1.00;99.90
32749;DHT22;19119;52.474;13.710;2023-04-03T04:37:31;-0.90;99.90
32749;DHT22;19119;52.474;13.710;2023-04-03T04:39:56;-1.00;99.90
32749;DHT22;19119;52.474;13.710;2023-04-03T04:42:22;-1.00;99.90
32749;DHT22;19119;52.474;13.710;2023-04-03T04:44:47;-1.00;99.90
32749;DHT22;19119;52.474;13.710;2023-04-03T04:47:13;-1.00;99.90
32749;DHT22;19119;52.474;13.710;2023-04-03T04:49:38;-1.00;99.90
32749;DHT22;19119;52.474;13.710;2023-04-03T04:52:04;-1.00;99.90
32749;DHT22;19119;52.474;13.710;2023-04-03T04:54:29;-0.90;99.90
32749;DHT22;19119;52.474;13.710;2023-04-03T04:56:55;-1.00;99.90
32749;DHT22;19119;52.474;13.710;2023-04-03T04:59:20;-0.90;99.90
32749;DHT22;19119;52.474;13.710;2023-04-03T05:01:46;-0.90;99.90
32749;DHT22;19119;52.474;13.710;2023-04-03T05:04:11;-0.90;99.90
32749;DHT22;19119;52.474;13.710;2023-04-03T05:06:38;-0.90;99.90
32749;DHT22;19119;52.474;13.710;2023-04-03T05:09:03;-0.90;99.90
32749;DHT22;19119;52.474;13.710;2023-04-03T05:11:29;-0.70;99.90
32749;DHT22;19119;52.474;13.710;2023-04-03T05:13:55;-0.70;99.90
32749;DHT22;19119;52.474;13.710;2023-04-03T05:16:20;-0.60;99.90
32749;DHT22;19119;52.474;13.710;2023-04-03T05:18:46;-0.40;99.90
32749;DHT22;19119;52.474;13.710;2023-04-03T05:21:11;-0.20;99.90
32749;DHT22;19119;52.474;13.710;2023-04-03T05:23:37;-0.10;99.90
32749;DHT22;19119;52.474;13.710;2023-04-03T05:26:03;0.00;99.90
32749;DHT22;19119;52.474;13.710;2023-04-03T05:28:28;-0.10;99.90
32749;DHT22;19119;52.474;13.710;2023-04-03T05:30:55;-0.10;99.90
32749;DHT22;19119;52.474;13.710;2023-04-03T05:33:21;0.20;99.90
32749;DHT22;19119;52.474;13.710;2023-04-03T05:35:47;0.50;99.90
32749;DHT22;19119;52.474;13.710;2023-04-03T05:38:12;0.60;99.90
32749;DHT22;19119;52.474;13.710;2023-04-03T05:40:39;0.50;99.90
32749;DHT22;19119;52.474;13.710;2023-04-03T05:43:05;0.40;99.90
32749;DHT22;19119;52.474;13.710;2023-04-03T05:45:30;0.40;99.90
32749;DHT22;19119;52.474;13.710;2023-04-03T05:47:56;0.40;99.90
32749;DHT22;19119;52.474;13.710;2023-04-03T05:50:21;0.40;99.90
32749;DHT22;19119;52.474;13.710;2023-04-03T05:52:49;0.40;99.90
32749;DHT22;19119;52.474;13.710;2023-04-03T05:55:15;0.40;99.90
32749;DHT22;19119;52.474;13.710;2023-04-03T05:57:40;0.50;99.90
32749;DHT22;19119;52.474;13.710;2023-04-03T06:00:07;0.70;99.90
32749;DHT22;19119;52.474;13.710;2023-04-03T06:02:33;0.70;99.90
32749;DHT22;19119;52.474;13.710;2023-04-03T06:04:58;1.10;99.90
32749;DHT22;19119;52.474;13.710;2023-04-03T06:07:26;1.10;99.90
32749;DHT22;19119;52.474;13.710;2023-04-03T06:09:54;1.40;99.90
32749;DHT22;19119;52.474;13.710;2023-04-03T06:12:20;1.40;99.90
32749;DHT22;19119;52.474;13.710;2023-04-03T06:14:47;1.50;99.90
32749;DHT22;19119;52.474;13.710;2023-04-03T06:17:13;1.40;99.90
32749;DHT22;19119;52.474;13.710;2023-04-03T06:19:39;1.50;99.90
32749;DHT22;19119;52.474;13.710;2023-04-03T06:22:04;1.60;99.90
32749;DHT22;19119;52.474;13.710;2023-04-03T06:24:30;1.90;99.90
32749;DHT22;19119;52.474;13.710;2023-04-03T06:26:56;2.20;99.90
32749;DHT22;19119;52.474;13.710;2023-04-03T06:29:22;2.20;99.90
32749;DHT22;19119;52.474;13.710;2023-04-03T06:31:48;2.00;99.90
32749;DHT22;19119;52.474;13.710;2023-04-03T06:34:15;2.30;99.90
32749;DHT22;19119;52.474;13.710;2023-04-03T06:36:41;2.10;99.90
32749;DHT22;19119;52.474;13.710;2023-04-03T06:39:08;2.40;99.90
32749;DHT22;19119;52.474;13.710;2023-04-03T06:41:34;2.50;99.90
32749;DHT22;19119;52.474;13.710;2023-04-03T06:44:00;2.50;99.90
32749;DHT22;19119;52.474;13.710;2023-04-03T06:46:26;2.40;99.90
32749;DHT22;19119;52.474;13.710;2023-04-03T06:48:52;2.60;99.90
32749;DHT22;19119;52.474;13.710;2023-04-03T06:51:26;2.90;99.90
32749;DHT22;19119;52.474;13.710;2023-04-03T06:53:55;2.60;99.90
32749;DHT22;19119;52.474;13.710;2023-04-03T06:56:21;3.00;99.90
32749;DHT22;19119;52.474;13.710;2023-04-03T06:58:47;3.40;99.90
32749;DHT22;19119;52.474;13.710;2023-04-03T07:01:14;3.50;99.90
32749;DHT22;19119;52.474;13.710;2023-04-03T07:03:40;3.10;99.90
32749;DHT22;19119;52.474;13.710;2023-04-03T07:06:07;3.30;99.90
32749;DHT22;19119;52.474;13.710;2023-04-03T07:08:34;3.60;99.90
32749;DHT22;19119;52.474;13.710;2023-04-03T07:11:00;3.60;99.90
32749;DHT22;19119;52.474;13.710;2023-04-03T07:13:26;3.70;99.90
32749;DHT22;19119;52.474;13.710;2023-04-03T07:15:52;3.90;99.90
32749;DHT22;19119;52.474;13.710;2023-04-03T07:18:18;4.20;99.90
32749;DHT22;19119;52.474;13.710;2023-04-03T07:20:43;4.00;99.90
32749;DHT22;19119;52.474;13.710;2023-04-03T07:23:09;4.20;99.90
32749;DHT22;19119;52.474;13.710;2023-04-03T07:25:35;4.20;99.90
32749;DHT22;19119;52.474;13.710;2023-04-03T07:28:01;4.20;99.90
32749;DHT22;19119;52.474;13.710;2023-04-03T07:30:27;4.20;99.90
32749;DHT22;19119;52.474;13.710;2023-04-03T07:32:52;4.20;99.90
32749;DHT22;19119;52.474;13.710;2023-04-03T07:35:18;4.50;99.90
32749;DHT22;19119;52.474;13.710;2023-04-03T07:37:44;4.30;99.90
32749;DHT22;19119;52.474;13.710;2023-04-03T07:40:09;4.50;99.90
32749;DHT22;19119;52.474;13.710;2023-04-03T07:42:35;4.00;99.90
32749;DHT22;19119;52.474;13.710;2023-04-03T07:45:02;4.00;99.90
32749;DHT22;19119;52.474;13.710;2023-04-03T07:47:29;3.70;99.90
32749;DHT22;19119;52.474;13.710;2023-04-03T07:49:55;3.70;99.90
32749;DHT22;19119;52.474;13.710;2023-04-03T07:52:22;3.80;99.90
32749;DHT22;19119;52.474;13.710;2023-04-03T07:54:48;3.60;99.90
32749;DHT22;19119;52.474;13.710;2023-04-03T07:57:13;3.50;99.90
32749;DHT22;19119;52.474;13.710;2023-04-03T07:59:38;3.50;99.90
32749;DHT22;19119;52.474;13.710;2023-04-03T08:02:09;3.50;99.90
32749;DHT22;19119;52.474;13.710;2023-04-03T08:04:34;3.60;99.90
32749;DHT22;19119;52.474;13.710;2023-04-03T08:07:00;3.50;99.90
32749;DHT22;19119;52.474;13.710;2023-04-03T08:09:26;3.40;99.90
32749;DHT22;19119;52.474;13.710;2023-04-03T08:11:51;3.40;99.90
32749;DHT22;19119;52.474;13.710;2023-04-03T08:14:19;3.40;99.90
32749;DHT22;19119;52.474;13.710;2023-04-03T08:16:47;3.60;99.90
32749;DHT22;19119;52.474;13.710;2023-04-03T08:19:14;3.50;99.90
32749;DHT22;19119;52.474;13.710;2023-04-03T08:21:41;3.60;99.90
32749;DHT22;19119;52.474;13.710;2023-04-03T08:24:09;3.50;99.90
32749;DHT22;19119;52.474;13.710;2023-04-03T08:26:35;3.40;99.90
32749;DHT22;19119;52.474;13.710;2023-04-03T08:29:00;3.50;99.90
32749;DHT22;19119;52.474;13.710;2023-04-03T08:31:26;3.90;99.90
32749;DHT22;19119;52.474;13.710;2023-04-03T08:33:52;4.40;99.90
32749;DHT22;19119;52.474;13.710;2023-04-03T08:36:26;4.90;99.90
32749;DHT22;19119;52.474;13.710;2023-04-03T08:38:52;6.00;99.90
32749;DHT22;19119;52.474;13.710;2023-04-03T08:47:11;5.40;99.90
32749;DHT22;19119;52.474;13.710;2023-04-03T08:49:45;4.90;99.90
32749;DHT22;19119;52.474;13.710;2023-04-03T08:52:17;4.80;99.90
32749;DHT22;19119;52.474;13.710;2023-04-03T08:55:06;4.80;99.90
32749;DHT22;19119;52.474;13.710;2023-04-03T08:57:39;4.50;99.90
32749;DHT22;19119;52.474;13.710;2023-04-03T09:00:07;4.50;99.90
32749;DHT22;19119;52.474;13.710;2023-04-03T09:02:45;4.10;99.90
32749;DHT22;19119;52.474;13.710;2023-04-03T09:07:49;4.90;99.90
32749;DHT22;19119;52.474;13.710;2023-04-03T09:10:26;5.70;99.90
32749;DHT22;19119;52.474;13.710;2023-04-03T09:13:09;6.40;99.60
32749;DHT22;19119;52.474;13.710;2023-04-03T09:15:38;6.60;99.90
32749;DHT22;19119;52.474;13.710;2023-04-03T09:18:25;6.00;98.90
32749;DHT22;19119;52.474;13.710;2023-04-03T09:23:41;5.70;99.90
32749;DHT22;19119;52.474;13.710;2023-04-03T09:26:24;5.80;99.90
32749;DHT22;19119;52.474;13.710;2023-04-03T09:28:54;5.60;99.50
32749;DHT22;19119;52.474;13.710;2023-04-03T09:31:24;5.40;99.20
32749;DHT22;19119;52.474;13.710;2023-04-03T09:33:54;5.60;99.90
32749;DHT22;19119;52.474;13.710;2023-04-03T09:39:16;5.60;99.90
32749;DHT22;19119;52.474;13.710;2023-04-03T09:42:04;5.60;99.90
32749;DHT22;19119;52.474;13.710;2023-04-03T09:44:33;5.60;98.80
32749;DHT22;19119;52.474;13.710;2023-04-03T09:46:58;5.80;99.90
32749;DHT22;19119;52.474;13.710;2023-04-03T09:49:24;5.50;99.20
32749;DHT22;19119;52.474;13.710;2023-04-03T09:51:50;5.50;99.80
32749;DHT22;19119;52.474;13.710;2023-04-03T09:54:35;5.30;99.90
32749;DHT22;19119;52.474;13.710;2023-04-03T09:57:13;5.40;99.90
32749;DHT22;19119;52.474;13.710;2023-04-03T09:59:43;5.30;99.90
32749;DHT22;19119;52.474;13.710;2023-04-03T10:04:41;5.00;99.90
32749;DHT22;19119;52.474;13.710;2023-04-03T10:09:57;5.20;99.90
32749;DHT22;19119;52.474;13.710;2023-04-03T10:12:23;5.30;99.90
32749;DHT22;19119;52.474;13.710;2023-04-03T10:14:59;5.80;99.60
32749;DHT22;19119;52.474;13.710;2023-04-03T10:17:41;6.40;99.90
32749;DHT22;19119;52.474;13.710;2023-04-03T10:20:14;6.30;99.00
32749;DHT22;19119;52.474;13.710;2023-04-03T10:22:56;5.80;99.50
32749;DHT22;19119;52.474;13.710;2023-04-03T10:31:14;5.10;99.90
32749;DHT22;19119;52.474;13.710;2023-04-03T10:33:55;4.80;99.90
32749;DHT22;19119;52.474;13.710;2023-04-03T10:42:04;4.90;99.90
32749;DHT22;19119;52.474;13.710;2023-04-03T10:44:52;5.00;99.90
32749;DHT22;19119;52.474;13.710;2023-04-03T10:47:40;5.00;99.90
32749;DHT22;19119;52.474;13.710;2023-04-03T10:50:31;5.00;99.90
32749;DHT22;19119;52.474;13.710;2023-04-03T10:56:15;5.10;99.90
32749;DHT22;19119;52.474;13.710;2023-04-03T10:58:54;5.30;99.90
32749;DHT22;19119;52.474;13.710;2023-04-03T11:01:26;5.00;99.90
32749;DHT22;19119;52.474;13.710;2023-04-03T11:03:58;4.70;99.90
32749;DHT22;19119;52.474;13.710;2023-04-03T11:06:31;4.70;99.90
32749;DHT22;19119;52.474;13.710;2023-04-03T11:09:20;4.50;99.90
32749;DHT22;19119;52.474;13.710;2023-04-03T11:11:48;4.60;99.90
32749;DHT22;19119;52.474;13.710;2023-04-03T11:14:21;4.50;99.90
32749;DHT22;19119;52.474;13.710;2023-04-03T11:20:06;4.70;99.90
32749;DHT22;19119;52.474;13.710;2023-04-03T11:22:40;4.60;99.90
32749;DHT22;19119;52.474;13.710;2023-04-03T11:27:49;5.10;99.90
32749;DHT22;19119;52.474;13.710;2023-04-03T11:36:09;5.60;99.90
32749;DHT22;19119;52.474;13.710;2023-04-03T11:38:41;5.90;99.90
32749;DHT22;19119;52.474;13.710;2023-04-03T11:41:10;6.30;99.90
32749;DHT22;19119;52.474;13.710;2023-04-03T11:43:59;6.20;99.90
32749;DHT22;19119;52.474;13.710;2023-04-03T11:46:48;5.50;99.90
32749;DHT22;19119;52.474;13.710;2023-04-03T12:05:55;5.00;99.90
32749;DHT22;19119;52.474;13.710;2023-04-03T12:08:41;5.10;99.90
32749;DHT22;19119;52.474;13.710;2023-04-03T12:16:24;5.80;99.90
32749;DHT22;19119;52.474;13.710;2023-04-03T12:29:59;5.40;99.90
32749;DHT22;19119;52.474;13.710;2023-04-03T12:35:29;5.20;99.90
32749;DHT22;19119;52.474;13.710;2023-04-03T12:41:18;5.40;99.90
32749;DHT22;19119;52.474;13.710;2023-04-03T12:44:06;5.40;99.90
32749;DHT22;19119;52.474;13.710;2023-04-03T12:46:43;5.20;99.90
32749;DHT22;19119;52.474;13.710;2023-04-03T12:49:38;5.50;99.90
32749;DHT22;19119;52.474;13.710;2023-04-03T12:52:29;5.50;99.90
32749;DHT22;19119;52.474;13.710;2023-04-03T12:54:56;5.30;99.90
32749;DHT22;19119;52.474;13.710;2023-04-03T12:57:26;5.60;99.90
32749;DHT22;19119;52.474;13.710;2023-04-03T12:59:53;5.80;99.90
32749;DHT22;19119;52.474;13.710;2023-04-03T13:02:34;5.90;99.90
32749;DHT22;19119;52.474;13.710;2023-04-03T13:05:09;5.80;99.90
32749;DHT22;19119;52.474;13.710;2023-04-03T13:07:37;5.60;99.90
32749;DHT22;19119;52.474;13.710;2023-04-03T13:12:33;5.50;99.90
32749;DHT22;19119;52.474;13.710;2023-04-03T13:15:11;5.60;99.90
32749;DHT22;19119;52.474;13.710;2023-04-03T13:17:39;5.80;99.90
32749;DHT22;19119;52.474;13.710;2023-04-03T13:23:13;6.50;99.90
32749;DHT22;19119;52.474;13.710;2023-04-03T13:25:43;6.20;99.90
32749;DHT22;19119;52.474;13.710;2023-04-03T13:28:13;5.80;99.90
32749;DHT22;19119;52.474;13.710;2023-04-03T13:30:40;5.60;99.90
32749;DHT22;19119;52.474;13.710;2023-04-03T13:33:25;5.40;99.90
32749;DHT22;19119;52.474;13.710;2023-04-03T13:36:19;5.50;99.90
32749;DHT22;19119;52.474;13.710;2023-04-03T13:38:45;5.40;99.90
32749;DHT22;19119;52.474;13.710;2023-04-03T13:41:36;5.30;99.90
32749;DHT22;19119;52.474;13.710;2023-04-03T13:44:29;5.30;99.90
32749;DHT22;19119;52.474;13.710;2023-04-03T13:47:19;5.30;99.90
32749;DHT22;19119;52.474;13.710;2023-04-03T13:52:46;5.60;99.90
32749;DHT22;19119;52.474;13.710;2023-04-03T13:55:23;5.80;99.90
32749;DHT22;19119;52.474;13.710;2023-04-03T13:58:20;5.90;99.90
32749;DHT22;19119;52.474;13.710;2023-04-03T14:00:50;5.60;99.90
32749;DHT22;19119;52.474;13.710;2023-04-03T14:03:32;5.50;99.90
32749;DHT22;19119;52.474;13.710;2023-04-03T14:05:59;6.20;99.90
32749;DHT22;19119;52.474;13.710;2023-04-03T14:08:26;6.10;99.90
32749;DHT22;19119;52.474;13.710;2023-04-03T14:10:53;6.40;99.90
32749;DHT22;19119;52.474;13.710;2023-04-03T14:13:19;6.60;99.90
32749;DHT22;19119;52.474;13.710;2023-04-03T14:15:46;6.30;99.90
32749;DHT22;19119;52.474;13.710;2023-04-03T14:18:15;6.00;99.90
32749;DHT22;19119;52.474;13.710;2023-04-03T14:20:42;6.10;99.90
32749;DHT22;19119;52.474;13.710;2023-04-03T14:23:08;6.20;99.90
32749;DHT22;19119;52.474;13.710;2023-04-03T14:25:34;5.80;99.90
32749;DHT22;19119;52.474;13.710;2023-04-03T14:28:00;5.80;99.90
32749;DHT22;19119;52.474;13.710;2023-04-03T14:30:31;5.70;99.90
32749;DHT22;19119;52.474;13.710;2023-04-03T14:32:57;5.70;99.90
32749;DHT22;19119;52.474;13.710;2023-04-03T14:35:24;5.70;99.90
32749;DHT22;19119;52.474;13.710;2023-04-03T14:37:51;5.50;99.90
32749;DHT22;19119;52.474;13.710;2023-04-03T14:40:20;5.40;99.90
32749;DHT22;19119;52.474;13.710;2023-04-03T14:42:46;5.40;99.90
32749;DHT22;19119;52.474;13.710;2023-04-03T14:45:13;5.20;99.90
32749;DHT22;19119;52.474;13.710;2023-04-03T14:47:44;5.20;99.90
32749;DHT22;19119;52.474;13.710;2023-04-03T14:50:17;5.30;99.90
32749;DHT22;19119;52.474;13.710;2023-04-03T14:52:44;5.40;99.90
32749;DHT22;19119;52.474;13.710;2023-04-03T14:55:12;5.40;99.90
32749;DHT22;19119;52.474;13.710;2023-04-03T14:57:39;5.50;99.90
32749;DHT22;19119;52.474;13.710;2023-04-03T15:00:07;5.40;99.90
32749;DHT22;19119;52.474;13.710;2023-04-03T15:02:38;5.30;99.90
32749;DHT22;19119;52.474;13.710;2023-04-03T15:05:07;5.10;99.90
32749;DHT22;19119;52.474;13.710;2023-04-03T15:07:37;5.10;99.90
32749;DHT22;19119;52.474;13.710;2023-04-03T15:10:20;5.00;99.90
32749;DHT22;19119;52.474;13.710;2023-04-03T15:12:47;4.90;99.90
32749;DHT22;19119;52.474;13.710;2023-04-03T15:15:15;4.90;99.90
32749;DHT22;19119;52.474;13.710;2023-04-03T15:17:41;5.00;99.90
32749;DHT22;19119;52.474;13.710;2023-04-03T15:20:19;4.80;99.90
32749;DHT22;19119;52.474;13.710;2023-04-03T15:22:45;5.00;99.90
32749;DHT22;19119;52.474;13.710;2023-04-03T15:25:11;4.70;99.90
32749;DHT22;19119;52.474;13.710;2023-04-03T15:27:38;4.80;99.90
32749;DHT22;19119;52.474;13.710;2023-04-03T15:30:05;4.90;99.90
32749;DHT22;19119;52.474;13.710;2023-04-03T15:32:31;4.90;99.90
32749;DHT22;19119;52.474;13.710;2023-04-03T15:34:57;4.80;99.90
32749;DHT22;19119;52.474;13.710;2023-04-03T15:37:23;4.80;99.90
32749;DHT22;19119;52.474;13.710;2023-04-03T15:39:48;4.90;99.90
32749;DHT22;19119;52.474;13.710;2023-04-03T15:42:13;4.80;99.90
32749;DHT22;19119;52.474;13.710;2023-04-03T15:44:39;4.80;99.90
32749;DHT22;19119;52.474;13.710;2023-04-03T15:47:05;4.80;99.90
32749;DHT22;19119;52.474;13.710;2023-04-03T15:49:33;4.80;99.90
32749;DHT22;19119;52.474;13.710;2023-04-03T15:51:59;4.90;99.90
32749;DHT22;19119;52.474;13.710;2023-04-03T15:54:24;5.00;99.90
32749;DHT22;19119;52.474;13.710;2023-04-03T15:56:51;5.30;99.90
32749;DHT22;19119;52.474;13.710;2023-04-03T15:59:17;5.20;99.90
32749;DHT22;19119;52.474;13.710;2023-04-03T16:01:43;5.50;99.90
32749;DHT22;19119;52.474;13.710;2023-04-03T16:04:09;5.40;99.90
32749;DHT22;19119;52.474;13.710;2023-04-03T16:06:37;5.20;99.90
32749;DHT22;19119;52.474;13.710;2023-04-03T16:09:03;5.30;99.90
32749;DHT22;19119;52.474;13.710;2023-04-03T16:11:29;5.20;99.90
32749;DHT22;19119;52.474;13.710;2023-04-03T16:13:54;5.20;99.90
32749;DHT22;19119;52.474;13.710;2023-04-03T16:16:20;5.20;99.90
32749;DHT22;19119;52.474;13.710;2023-04-03T16:18:47;4.90;99.90
32749;DHT22;19119;52.474;13.710;2023-04-03T16:21:13;5.00;99.90
32749;DHT22;19119;52.474;13.710;2023-04-03T16:23:40;5.00;99.90
32749;DHT22;19119;52.474;13.710;2023-04-03T16:26:07;4.90;99.90
32749;DHT22;19119;52.474;13.710;2023-04-03T16:28:33;4.90;99.90
32749;DHT22;19119;52.474;13.710;2023-04-03T16:31:00;4.80;99.90
32749;DHT22;19119;52.474;13.710;2023-04-03T16:33:26;4.80;99.90
32749;DHT22;19119;52.474;13.710;2023-04-03T16:35:51;4.60;99.90
32749;DHT22;19119;52.474;13.710;2023-04-03T16:38:17;4.70;99.90
32749;DHT22;19119;52.474;13.710;2023-04-03T16:40:44;4.70;99.90
32749;DHT22;19119;52.474;13.710;2023-04-03T16:43:10;4.50;99.90
32749;DHT22;19119;52.474;13.710;2023-04-03T16:45:36;4.50;99.90
32749;DHT22;19119;52.474;13.710;2023-04-03T16:48:01;4.50;99.90
32749;DHT22;19119;52.474;13.710;2023-04-03T16:50:27;4.40;99.90
32749;DHT22;19119;52.474;13.710;2023-04-03T16:52:52;4.60;99.90
32749;DHT22;19119;52.474;13.710;2023-04-03T16:55:19;4.60;99.90
32749;DHT22;19119;52.474;13.710;2023-04-03T16:57:46;4.60;99.90
32749;DHT22;19119;52.474;13.710;2023-04-03T17:00:12;4.70;99.90
32749;DHT22;19119;52.474;13.710;2023-04-03T17:02:39;4.70;99.90
32749;DHT22;19119;52.474;13.710;2023-04-03T17:05:05;4.60;99.90
32749;DHT22;19119;52.474;13.710;2023-04-03T17:07:31;4.60;99.90
32749;DHT22;19119;52.474;13.710;2023-04-03T17:09:56;4.70;99.90
32749;DHT22;19119;52.474;13.710;2023-04-03T17:12:22;4.60;99.90
32749;DHT22;19119;52.474;13.710;2023-04-03T17:14:48;4.50;99.90
32749;DHT22;19119;52.474;13.710;2023-04-03T17:17:14;4.50;99.90